createdAt,value
2023-04-03T00:01:08.925Z,13.70
2023-04-03T00:03:36.544Z,13.73
2023-04-03T00:06:05.093Z,13.74
2023-04-03T00:08:33.455Z,13.59
2023-04-03T00:11:00.441Z,13.60
2023-04-03T00:13:27.509Z,13.69
2023-04-03T00:15:54.856Z,13.59
2023-04-03T00:18:22.353Z,13.75
2023-04-03T00:20:49.853Z,13.73
2023-04-03T00:23:17.474Z,13.63
2023-04-03T00:25:44.737Z,13.73
2023-04-03T00:28:12.017Z,13.72
2023-04-03T00:30:39.648Z,13.69
2023-04-03T00:33:07.141Z,13.62
2023-04-03T00:35:35.587Z,13.79
2023-04-03T00:38:02.680Z,13.67
2023-04-03T00:40:37.478Z,13.78
2023-04-03T00:43:20.160Z,13.66
2023-04-03T00:45:51.005Z,13.81
2023-04-03T00:48:33.042Z,13.90
2023-04-03T00:51:00.574Z,13.87
2023-04-03T00:53:35.025Z,13.75
2023-04-03T00:56:02.464Z,13.63
2023-04-03T00:58:40.368Z,13.88
2023-04-03T01:01:13.832Z,13.65
2023-04-03T01:03:41.255Z,13.53
2023-04-03T01:06:08.666Z,13.45
2023-04-03T01:08:36.666Z,13.59
2023-04-03T01:11:03.847Z,13.58
2023-04-03T01:13:34.255Z,13.71
2023-04-03T01:16:06.671Z,13.82
2023-04-03T01:18:35.407Z,13.71
2023-04-03T01:21:12.066Z,13.83
2023-04-03T01:23:57.522Z,13.86
2023-04-03T01:26:26.951Z,13.68
2023-04-03T01:28:56.288Z,13.76
2023-04-03T01:31:29.445Z,13.87
2023-04-03T01:33:57.365Z,13.69
2023-04-03T01:36:31.982Z,13.76
2023-04-03T01:39:01.202Z,13.61
2023-04-03T01:41:29.566Z,13.59
2023-04-03T01:44:04.912Z,13.57
2023-04-03T01:46:32.012Z,13.40
2023-04-03T01:48:59.133Z,13.47
2023-04-03T01:51:26.097Z,13.44
2023-04-03T01:53:53.206Z,13.27
2023-04-03T01:56:21.089Z,13.09
2023-04-03T01:58:48.696Z,13.28
2023-04-03T02:01:16.197Z,13.28
2023-04-03T02:03:43.423Z,13.45
2023-04-03T02:06:12.600Z,13.44
2023-04-03T02:08:40.212Z,13.49
2023-04-03T02:11:07.334Z,13.46
2023-04-03T02:13:34.296Z,13.45
2023-04-03T02:16:09.315Z,13.63
2023-04-03T02:18:36.542Z,13.46
2023-04-03T02:21:03.703Z,13.41
2023-04-03T02:23:30.683Z,13.31
2023-04-03T02:26:13.202Z,13.68
2023-04-03T02:28:42.062Z,13.49
2023-04-03T02:31:11.057Z,13.44
2023-04-03T02:33:40.147Z,13.32
2023-04-03T02:36:09.962Z,13.38
2023-04-03T02:38:38.786Z,13.31
2023-04-03T02:41:10.335Z,13.46
2023-04-03T02:43:38.422Z,13.35
2023-04-03T02:46:06.980Z,13.32
2023-04-03T02:48:34.460Z,13.36
2023-04-03T02:51:02.080Z,13.29
2023-04-03T02:53:29.339Z,13.42
2023-04-03T02:55:56.808Z,13.24
2023-04-03T02:58:23.925Z,13.07
2023-04-03T03:00:52.114Z,13.28
2023-04-03T03:03:19.555Z,13.32
2023-04-03T03:05:46.676Z,13.18
2023-04-03T03:08:13.663Z,13.21
2023-04-03T03:10:40.602Z,13.16
2023-04-03T03:13:08.163Z,13.14
2023-04-03T03:15:35.399Z,13.15
2023-04-03T03:18:04.190Z,13.23
2023-04-03T03:20:31.472Z,13.01
2023-04-03T03:22:59.110Z,12.82
2023-04-03T03:25:26.075Z,12.91
2023-04-03T03:27:53.067Z,13.10
2023-04-03T03:30:20.501Z,13.11
2023-04-03T03:32:47.773Z,12.99
2023-04-03T03:35:15.316Z,13.17
2023-04-03T03:37:42.322Z,12.96
2023-04-03T03:40:10.491Z,13.17
2023-04-03T03:42:38.768Z,13.04
2023-04-03T03:45:06.835Z,13.11
2023-04-03T03:47:34.004Z,13.07
2023-04-03T03:50:01.013Z,13.09
2023-04-03T03:52:28.569Z,13.19
2023-04-03T03:54:56.023Z,13.11
2023-04-03T03:57:23.157Z,13.00
2023-04-03T03:59:51.261Z,12.91
2023-04-03T04:02:19.318Z,12.95
2023-04-03T04:04:46.920Z,12.91
2023-04-03T04:07:14.843Z,13.04
2023-04-03T04:09:42.457Z,12.78
2023-04-03T04:12:10.278Z,12.99
2023-04-03T04:14:38.110Z,12.95
2023-04-03T04:17:07.085Z,12.91
2023-04-03T04:19:34.845Z,12.99
2023-04-03T04:22:02.185Z,12.93
2023-04-03T04:24:30.903Z,12.83
2023-04-03T04:26:58.670Z,12.90
2023-04-03T04:29:26.541Z,12.86
2023-04-03T04:31:54.079Z,12.81
2023-04-03T04:34:22.765Z,12.60
2023-04-03T04:36:49.735Z,12.47
2023-04-03T04:39:17.373Z,12.42
2023-04-03T04:41:44.737Z,12.49
2023-04-03T04:44:12.190Z,12.73
2023-04-03T04:46:40.069Z,12.68
2023-04-03T04:49:09.094Z,12.78
2023-04-03T04:51:48.315Z,12.87
2023-04-03T04:54:19.968Z,12.64
2023-04-03T04:56:49.165Z,12.73
2023-04-03T04:59:16.822Z,12.63
2023-04-03T05:01:44.325Z,12.10
2023-04-03T05:04:16.766Z,12.65
2023-04-03T05:06:46.299Z,12.22
2023-04-03T05:09:17.971Z,12.42
2023-04-03T05:11:47.431Z,12.35
2023-04-03T05:14:16.409Z,12.12
2023-04-03T05:16:43.917Z,12.30
2023-04-03T05:19:11.308Z,12.57
2023-04-03T05:21:39.840Z,12.43
2023-04-03T05:24:11.912Z,12.27
2023-04-03T05:26:41.979Z,12.37
2023-04-03T05:29:10.248Z,12.44
2023-04-03T05:31:37.939Z,12.72
2023-04-03T05:34:06.998Z,12.69
2023-04-03T05:36:37.578Z,12.50
2023-04-03T05:39:08.088Z,12.51
2023-04-03T05:41:38.618Z,12.66
2023-04-03T05:44:05.957Z,12.39
2023-04-03T05:46:33.209Z,12.30
2023-04-03T05:49:04.609Z,12.38
2023-04-03T05:51:37.663Z,12.30
2023-04-03T05:54:27.961Z,12.43
2023-04-03T05:57:02.908Z,12.43
2023-04-03T05:59:31.079Z,12.23
2023-04-03T06:02:00.195Z,12.16
2023-04-03T06:04:27.778Z,12.33
2023-04-03T06:06:58.583Z,12.33
2023-04-03T06:09:29.996Z,12.18
2023-04-03T06:11:59.556Z,12.24
2023-04-03T06:14:28.227Z,12.46
2023-04-03T06:16:57.141Z,12.30
2023-04-03T06:19:24.847Z,12.57
2023-04-03T06:21:56.157Z,12.32
2023-04-03T06:24:26.237Z,12.26
2023-04-03T06:26:54.081Z,12.22
2023-04-03T06:29:22.146Z,11.65
2023-04-03T06:31:50.221Z,12.03
2023-04-03T06:34:18.959Z,12.06
2023-04-03T06:36:46.510Z,12.22
2023-04-03T06:39:17.960Z,12.41
2023-04-03T06:41:45.578Z,12.47
2023-04-03T06:44:14.186Z,12.37
2023-04-03T06:46:41.284Z,12.29
2023-04-03T06:49:08.788Z,11.95
2023-04-03T06:51:36.622Z,11.98
2023-04-03T06:54:05.795Z,11.33
2023-04-03T06:56:33.190Z,11.41
2023-04-03T06:59:00.788Z,10.84
2023-04-03T07:01:29.758Z,11.43
2023-04-03T07:03:57.405Z,12.04
2023-04-03T07:06:27.715Z,11.92
2023-04-03T07:08:55.741Z,11.68
2023-04-03T07:11:23.454Z,11.52
2023-04-03T07:13:51.513Z,11.89
2023-04-03T07:16:19.107Z,11.77
2023-04-03T07:18:47.624Z,11.94
2023-04-03T07:21:15.269Z,11.46
2023-04-03T07:23:42.684Z,12.00
2023-04-03T07:26:10.312Z,11.62
2023-04-03T07:28:37.822Z,11.81
2023-04-03T07:31:09.735Z,12.03
2023-04-03T07:33:38.704Z,12.15
2023-04-03T07:36:08.164Z,11.96
2023-04-03T07:38:38.667Z,12.09
2023-04-03T07:41:06.780Z,11.52
2023-04-03T07:43:35.356Z,11.67
2023-04-03T07:46:03.443Z,11.96
2023-04-03T07:48:31.001Z,11.75
2023-04-03T07:51:02.704Z,11.66
2023-04-03T07:53:30.469Z,11.92
2023-04-03T07:55:59.565Z,11.89
2023-04-03T07:58:27.086Z,12.15
2023-04-03T08:00:54.627Z,11.67
2023-04-03T08:03:22.422Z,11.72
2023-04-03T08:05:50.772Z,12.07
2023-04-03T08:08:22.365Z,11.83
2023-04-03T08:10:51.876Z,12.28
2023-04-03T08:13:19.967Z,12.25
2023-04-03T08:15:47.815Z,11.88
2023-04-03T08:18:16.174Z,11.89
2023-04-03T08:20:43.892Z,12.46
2023-04-03T08:23:12.151Z,11.86
2023-04-03T08:25:43.062Z,12.85
2023-04-03T08:28:12.234Z,12.86
2023-04-03T08:30:43.570Z,12.31
2023-04-03T08:33:11.447Z,11.81
2023-04-03T08:35:43.025Z,12.12
2023-04-03T08:38:11.424Z,12.01
2023-04-03T08:40:39.295Z,12.02
2023-04-03T08:43:25.284Z,12.35
2023-04-03T08:45:56.448Z,12.60
2023-04-03T08:48:36.728Z,12.59
2023-04-03T08:51:18.248Z,12.29
2023-04-03T08:54:02.576Z,11.85
2023-04-03T08:56:31.164Z,12.40
2023-04-03T08:59:06.615Z,12.93
2023-04-03T09:01:40.935Z,12.69
2023-04-03T09:04:15.507Z,12.86
2023-04-03T09:06:51.402Z,13.12
2023-04-03T09:09:38.146Z,12.21
2023-04-03T09:12:22.366Z,12.14
2023-04-03T09:15:02.238Z,12.82
2023-04-03T09:17:59.522Z,12.48
2023-04-03T09:20:40.054Z,12.28
2023-04-03T09:23:51.613Z,13.24
2023-04-03T09:26:31.787Z,12.92
2023-04-03T09:29:07.555Z,13.08
2023-04-03T09:31:42.503Z,12.09
2023-04-03T09:34:34.157Z,12.61
2023-04-03T09:37:07.142Z,12.01
2023-04-03T09:39:52.511Z,12.53
2023-04-03T09:42:25.273Z,12.57
2023-04-03T09:45:05.617Z,12.55
2023-04-03T09:47:38.002Z,12.39
2023-04-03T09:50:14.181Z,12.84
2023-04-03T09:52:48.244Z,12.81
2023-04-03T09:55:30.763Z,12.82
2023-04-03T09:58:04.599Z,12.88
2023-04-03T10:00:38.612Z,12.18
2023-04-03T10:03:34.566Z,12.80
2023-04-03T10:06:02.973Z,12.57
2023-04-03T10:08:34.921Z,12.02
2023-04-03T10:11:16.950Z,12.35
2023-04-03T10:14:02.176Z,12.24
2023-04-03T10:16:55.148Z,12.39
2023-04-03T10:19:42.225Z,12.57
2023-04-03T10:22:21.226Z,12.39
2023-04-03T10:25:24.486Z,13.23
2023-04-03T10:27:57.120Z,12.23
2023-04-03T10:30:58.747Z,12.51
2023-04-03T10:33:26.671Z,12.66
2023-04-03T10:36:16.236Z,12.54
2023-04-03T10:39:23.074Z,13.47
2023-04-03T10:42:13.277Z,12.25
2023-04-03T10:45:20.610Z,12.76
2023-04-03T10:48:01.724Z,13.11
2023-04-03T10:50:46.068Z,11.92
2023-04-03T10:53:54.462Z,12.45
2023-04-03T10:56:49.780Z,12.25
2023-04-03T10:59:28.047Z,12.53
2023-04-03T11:02:09.240Z,12.02
2023-04-03T11:04:40.651Z,11.72
2023-04-03T11:07:24.273Z,12.44
2023-04-03T11:10:01.933Z,12.62
2023-04-03T11:12:50.504Z,12.17
2023-04-03T11:15:20.731Z,12.63
2023-04-03T11:18:04.500Z,12.63
2023-04-03T11:20:38.641Z,12.29
2023-04-03T11:23:30.399Z,12.55
2023-04-03T11:26:19.428Z,12.19
2023-04-03T11:28:47.245Z,12.24
2023-04-03T11:31:25.176Z,12.10
2023-04-03T11:34:41.262Z,13.08
2023-04-03T11:37:27.161Z,12.65
2023-04-03T11:40:16.988Z,12.96
2023-04-03T11:42:49.920Z,12.76
2023-04-03T11:45:23.241Z,13.41
2023-04-03T11:47:59.613Z,13.29
2023-04-03T11:50:41.924Z,13.34
2023-04-03T11:53:14.622Z,13.03
2023-04-03T11:55:50.814Z,12.74
2023-04-03T11:58:27.354Z,12.64
2023-04-03T12:01:03.914Z,12.84
2023-04-03T12:03:48.221Z,13.30
2023-04-03T12:06:20.718Z,12.82
2023-04-03T12:08:57.430Z,13.17
2023-04-03T12:11:43.596Z,12.59
2023-04-03T12:14:17.498Z,12.84
2023-04-03T12:16:48.406Z,13.10
2023-04-03T12:19:15.910Z,13.34
2023-04-03T12:21:57.965Z,13.12
2023-04-03T12:24:31.121Z,14.59
2023-04-03T12:26:58.123Z,14.43
2023-04-03T12:29:34.243Z,13.78
2023-04-03T12:32:37.578Z,13.53
2023-04-03T12:35:37.425Z,14.88
2023-04-03T12:38:35.325Z,13.52
2023-04-03T12:41:53.571Z,13.95
2023-04-03T12:44:37.954Z,13.33
2023-04-03T12:47:25.615Z,13.43
2023-04-03T12:49:54.531Z,12.69
2023-04-03T12:52:45.500Z,14.17
2023-04-03T12:55:19.315Z,16.00
2023-04-03T12:57:47.175Z,14.83
2023-04-03T13:00:40.565Z,13.46
2023-04-03T13:03:26.898Z,13.48
2023-04-03T13:06:01.571Z,12.26
2023-04-03T13:08:29.681Z,12.31
2023-04-03T13:11:03.405Z,12.51
2023-04-03T13:13:31.243Z,12.85
2023-04-03T13:15:58.758Z,13.01
2023-04-03T13:18:33.495Z,12.87
2023-04-03T13:21:07.325Z,13.11
2023-04-03T13:23:37.760Z,13.10
2023-04-03T13:26:06.130Z,12.92
2023-04-03T13:28:34.725Z,12.89
2023-04-03T13:31:24.792Z,13.28
2023-04-03T13:34:12.126Z,13.22
2023-04-03T13:36:43.254Z,13.53
2023-04-03T13:39:16.534Z,13.42
2023-04-03T13:41:50.004Z,16.63
2023-04-03T13:44:24.280Z,14.77
2023-04-03T13:46:57.463Z,12.96
2023-04-03T13:49:28.459Z,13.02
2023-04-03T13:52:07.438Z,12.66
2023-04-03T13:54:36.719Z,13.24
2023-04-03T13:57:04.520Z,13.10
2023-04-03T13:59:37.150Z,13.39
2023-04-03T14:02:04.056Z,12.79
2023-04-03T14:04:34.355Z,13.75
2023-04-03T14:07:01.523Z,13.61
2023-04-03T14:09:29.403Z,13.49
2023-04-03T14:12:06.003Z,13.71
2023-04-03T14:14:36.663Z,13.91
2023-04-03T14:17:11.713Z,13.71
2023-04-03T14:19:55.696Z,12.98
2023-04-03T14:22:30.675Z,13.33
2023-04-03T14:24:58.505Z,13.42
2023-04-03T14:27:40.412Z,13.87
2023-04-03T14:30:12.816Z,13.97
2023-04-03T14:32:39.907Z,13.94
2023-04-03T14:35:07.744Z,14.01
2023-04-03T14:37:36.364Z,14.25
2023-04-03T14:40:07.128Z,14.20
2023-04-03T14:42:37.549Z,13.76
2023-04-03T14:45:10.026Z,13.71
2023-04-03T14:47:48.504Z,13.47
2023-04-03T14:50:22.059Z,13.73
2023-04-03T14:52:52.379Z,14.17
2023-04-03T14:55:22.958Z,14.01
2023-04-03T14:57:50.344Z,14.10
2023-04-03T15:00:21.646Z,13.99
2023-04-03T15:02:49.712Z,14.65
2023-04-03T15:05:17.790Z,14.87
2023-04-03T15:07:55.775Z,14.63
2023-04-03T15:10:28.599Z,14.18
2023-04-03T15:12:56.702Z,14.10
2023-04-03T15:15:25.003Z,13.93
2023-04-03T15:17:55.514Z,13.59
2023-04-03T15:20:27.263Z,13.61
2023-04-03T15:22:57.167Z,13.91
2023-04-03T15:25:26.334Z,13.43
2023-04-03T15:27:58.413Z,13.66
2023-04-03T15:30:26.171Z,13.85
2023-04-03T15:32:54.317Z,13.84
2023-04-03T15:35:22.033Z,14.01
2023-04-03T15:37:49.268Z,13.95
2023-04-03T15:40:16.530Z,14.18
2023-04-03T15:42:43.987Z,14.16
2023-04-03T15:45:11.619Z,13.53
2023-04-03T15:47:38.812Z,14.04
2023-04-03T15:50:08.785Z,13.52
2023-04-03T15:52:36.369Z,13.31
2023-04-03T15:55:04.451Z,14.30
2023-04-03T15:59:59.426Z,14.52
2023-04-03T16:02:28.328Z,14.25
2023-04-03T16:04:56.557Z,14.22
2023-04-03T16:07:23.499Z,13.97
2023-04-03T16:09:51.113Z,13.74
2023-04-03T16:12:18.264Z,13.14
2023-04-03T16:14:45.616Z,13.41
2023-04-03T16:17:12.575Z,13.54
2023-04-03T16:19:40.010Z,14.04
2023-04-03T16:22:07.116Z,13.77
2023-04-03T16:24:34.567Z,13.99
2023-04-03T16:27:01.610Z,13.94
2023-04-03T16:29:28.718Z,13.30
2023-04-03T16:31:57.561Z,14.00
2023-04-03T16:34:26.564Z,13.61
2023-04-03T16:36:54.196Z,13.27
2023-04-03T16:39:21.868Z,13.15
2023-04-03T16:41:48.849Z,13.21
2023-04-03T16:44:16.252Z,12.89
2023-04-03T16:46:43.493Z,13.21
2023-04-03T16:49:11.365Z,13.53
2023-04-03T16:51:38.801Z,13.64
2023-04-03T16:54:07.467Z,13.39
2023-04-03T16:56:34.916Z,13.80
2023-04-03T16:59:02.524Z,13.89
2023-04-03T17:01:30.037Z,13.78
2023-04-03T17:03:57.492Z,14.08
2023-04-03T17:06:25.095Z,13.74
2023-04-03T17:08:53.193Z,13.36
2023-04-03T17:11:30.102Z,13.45
2023-04-03T17:13:57.510Z,13.78
2023-04-03T17:16:25.710Z,13.08
2023-04-03T17:18:54.130Z,12.69
2023-04-03T17:21:22.407Z,12.85
2023-04-03T17:23:58.743Z,13.24
2023-04-03T17:26:27.506Z,13.43
2023-04-03T17:28:54.831Z,13.10
2023-04-03T17:31:22.639Z,12.91
2023-04-03T17:33:51.546Z,12.95
2023-04-03T17:36:18.610Z,12.83
2023-04-03T17:38:45.997Z,13.00
2023-04-03T17:41:13.344Z,13.09
2023-04-03T17:43:40.391Z,13.39
2023-04-03T17:46:11.536Z,13.20
2023-04-03T17:48:41.481Z,13.43
2023-04-03T17:51:13.049Z,13.22
2023-04-03T17:53:40.865Z,12.97
2023-04-03T17:56:24.180Z,13.04
2023-04-03T17:58:51.939Z,13.02
2023-04-03T18:01:26.705Z,12.78
2023-04-03T18:03:58.673Z,13.20
2023-04-03T18:06:33.825Z,13.34
2023-04-03T18:09:09.575Z,13.28
2023-04-03T18:11:37.211Z,12.86
2023-04-03T18:14:07.858Z,13.06
2023-04-03T18:16:35.659Z,12.69
2023-04-03T18:19:21.321Z,12.87
2023-04-03T18:21:51.214Z,12.91
2023-04-03T18:24:20.677Z,13.45
2023-04-03T18:26:53.974Z,13.45
2023-04-03T18:29:21.738Z,13.12
2023-04-03T18:31:52.757Z,13.08
2023-04-03T18:34:19.915Z,13.04
2023-04-03T18:36:47.693Z,12.87
2023-04-03T18:39:15.568Z,12.70
2023-04-03T18:41:43.320Z,12.50
2023-04-03T18:44:16.070Z,12.63
2023-04-03T18:46:43.348Z,12.30
2023-04-03T18:49:12.491Z,12.88
2023-04-03T18:51:40.517Z,12.69
2023-04-03T18:54:09.907Z,12.42
2023-04-03T18:56:37.877Z,12.95
2023-04-03T18:59:08.135Z,12.91
2023-04-03T19:01:35.856Z,12.50
2023-04-03T19:04:03.472Z,12.64
2023-04-03T19:06:30.587Z,12.44
2023-04-03T19:08:57.933Z,12.64
2023-04-03T19:11:25.392Z,12.80
2023-04-03T19:14:10.642Z,12.58
2023-04-03T19:16:40.102Z,12.59
2023-04-03T19:19:07.542Z,12.27
2023-04-03T19:21:38.391Z,12.50
2023-04-03T19:24:06.421Z,12.40
2023-04-03T19:26:33.501Z,12.57
2023-04-03T19:29:00.635Z,12.39
2023-04-03T19:31:28.347Z,12.33
2023-04-03T19:33:56.237Z,12.70
2023-04-03T19:36:23.757Z,12.87
2023-04-03T19:38:50.897Z,12.57
2023-04-03T19:41:22.812Z,12.23
2023-04-03T19:43:52.821Z,12.42
2023-04-03T19:46:26.624Z,12.29
2023-04-03T19:48:54.120Z,12.22
2023-04-03T19:51:21.325Z,12.29
2023-04-03T19:53:48.572Z,12.30
2023-04-03T19:56:16.626Z,11.92
2023-04-03T19:58:43.997Z,12.21
2023-04-03T20:01:11.463Z,12.28
2023-04-03T20:03:39.983Z,12.22
2023-04-03T20:06:07.455Z,12.56
2023-04-03T20:08:37.004Z,11.87
2023-04-03T20:11:03.933Z,12.07
2023-04-03T20:13:30.976Z,12.07
2023-04-03T20:16:01.821Z,11.56
2023-04-03T20:18:28.905Z,12.11
2023-04-03T20:20:59.893Z,12.46
2023-04-03T20:23:28.071Z,11.73
2023-04-03T20:26:06.616Z,12.00
2023-04-03T20:28:37.767Z,12.18
2023-04-03T20:31:04.822Z,12.07
2023-04-03T20:33:32.034Z,11.71
2023-04-03T20:35:59.533Z,11.72
2023-04-03T20:38:26.922Z,11.92
2023-04-03T20:40:53.975Z,11.89
2023-04-03T20:43:23.125Z,11.48
2023-04-03T20:45:50.890Z,11.98
2023-04-03T20:48:18.709Z,11.37
2023-04-03T20:50:46.502Z,11.98
2023-04-03T20:53:14.912Z,12.17
2023-04-03T20:55:42.638Z,11.65
2023-04-03T20:58:11.351Z,11.43
2023-04-03T21:00:38.401Z,11.72
2023-04-03T21:03:06.004Z,11.80
2023-04-03T21:05:37.456Z,10.93
2023-04-03T21:09:01.257Z,11.39
2023-04-03T21:12:24.964Z,12.05
2023-04-03T21:15:49.074Z,11.88
2023-04-03T21:18:24.714Z,11.56
2023-04-03T21:20:52.818Z,11.56
2023-04-03T21:23:20.450Z,11.66
2023-04-03T21:25:48.899Z,11.54
2023-04-03T21:28:17.248Z,11.49
2023-04-03T21:30:44.499Z,11.49
2023-04-03T21:33:14.100Z,11.28
2023-04-03T21:35:41.658Z,11.00
2023-04-03T21:38:09.087Z,11.24
2023-04-03T21:40:36.201Z,10.86
2023-04-03T21:43:05.081Z,11.12
2023-04-03T21:45:32.313Z,11.15
2023-04-03T21:48:00.289Z,11.35
2023-04-03T21:50:27.825Z,11.19
2023-04-03T21:52:55.369Z,11.43
2023-04-03T21:55:22.732Z,11.01
2023-04-03T21:57:53.745Z,10.72
2023-04-03T22:00:21.643Z,11.06
2023-04-03T22:02:51.241Z,10.94
2023-04-03T22:05:20.262Z,10.94
2023-04-03T22:07:48.516Z,10.80
2023-04-03T22:10:16.539Z,11.28
2023-04-03T22:12:44.182Z,10.49
2023-04-03T22:15:11.821Z,10.75
2023-04-03T22:17:39.551Z,11.00
2023-04-03T22:20:07.903Z,11.08
2023-04-03T22:22:35.375Z,11.07
2023-04-03T22:25:05.869Z,10.85
2023-04-03T22:27:33.272Z,11.19
2023-04-03T22:30:00.977Z,11.17
2023-04-03T22:32:28.521Z,10.94
2023-04-03T22:34:55.532Z,10.85
2023-04-03T22:37:22.554Z,10.86
2023-04-03T22:39:50.068Z,11.17
2023-04-03T22:42:17.730Z,11.10
2023-04-03T22:44:44.759Z,10.81
2023-04-03T22:47:11.768Z,10.76
2023-04-03T22:49:39.282Z,10.82
2023-04-03T22:52:06.294Z,10.94
2023-04-03T22:54:33.582Z,10.97
2023-04-03T22:57:00.934Z,10.81
2023-04-03T22:59:28.373Z,11.08
2023-04-03T23:01:55.819Z,11.03
2023-04-03T23:04:24.478Z,10.81
2023-04-03T23:06:51.621Z,10.88
2023-04-03T23:09:18.987Z,11.01
2023-04-03T23:11:46.035Z,10.93
2023-04-03T23:14:13.842Z,11.01
2023-04-03T23:16:42.114Z,11.08
2023-04-03T23:19:09.452Z,10.81
2023-04-03T23:21:36.441Z,10.86
2023-04-03T23:24:03.881Z,10.96
2023-04-03T23:26:31.302Z,10.89
2023-04-03T23:28:58.623Z,10.39
2023-04-03T23:31:26.090Z,10.38
2023-04-03T23:33:55.424Z,10.76
2023-04-03T23:36:22.804Z,10.85
2023-04-03T23:38:50.230Z,10.72
2023-04-03T23:41:17.249Z,10.71
2023-04-03T23:43:46.423Z,10.41
2023-04-03T23:46:13.475Z,10.69
2023-04-03T23:48:40.903Z,10.67
2023-04-03T23:51:08.308Z,10.76
2023-04-03T23:53:35.318Z,10.52
2023-04-03T23:56:02.225Z,10.33
2023-04-03T23:58:29.161Z,10.52
